sensor_id;sensor_type;location;lat;lon;timestamp;P1;P2;P0
76784;PMS7003;66893;44.316;0.092;2023-09-12T00:02:17;3.75;3.00;2.75
76784;PMS7003;66893;44.316;0.092;2023-09-12T00:04:42;3.25;3.00;2.25
76784;PMS7003;66893;44.316;0.092;2023-09-12T00:07:08;3.25;3.25;2.50
76784;PMS7003;66893;44.316;0.092;2023-09-12T00:09:33;3.25;3.25;3.00
76784;PMS7003;66893;44.316;0.092;2023-09-12T00:11:58;3.00;3.00;2.00
76784;PMS7003;66893;44.316;0.092;2023-09-12T00:14:24;3.75;3.75;3.00
76784;PMS7003;66893;44.316;0.092;2023-09-12T00:16:49;5.00;5.00;4.00
76784;PMS7003;66893;44.316;0.092;2023-09-12T00:19:17;4.50;3.75;3.00
76784;PMS7003;66893;44.316;0.092;2023-09-12T00:21:43;6.50;5.00;4.00
76784;PMS7003;66893;44.316;0.092;2023-09-12T00:24:08;6.25;5.00;4.00
76784;PMS7003;66893;44.316;0.092;2023-09-12T00:26:33;6.00;3.75;3.00
76784;PMS7003;66893;44.316;0.092;2023-09-12T00:28:59;4.75;3.75;3.50
76784;PMS7003;66893;44.316;0.092;2023-09-12T00:31:24;5.25;5.25;4.00
76784;PMS7003;66893;44.316;0.092;2023-09-12T00:33:50;4.00;4.00;3.00
76784;PMS7003;66893;44.316;0.092;2023-09-12T00:36:15;4.25;4.25;3.25
76784;PMS7003;66893;44.316;0.092;2023-09-12T00:38:41;5.00;5.00;4.00
76784;PMS7003;66893;44.316;0.092;2023-09-12T00:41:06;4.25;4.25;3.00
76784;PMS7003;66893;44.316;0.092;2023-09-12T00:43:31;3.50;3.50;2.75
76784;PMS7003;66893;44.316;0.092;2023-09-12T00:45:57;4.25;4.25;3.50
76784;PMS7003;66893;44.316;0.092;2023-09-12T00:48:22;6.00;6.00;4.25
76784;PMS7003;66893;44.316;0.092;2023-09-12T00:50:49;4.75;4.75;3.00
76784;PMS7003;66893;44.316;0.092;2023-09-12T00:53:16;6.00;4.00;3.00
76784;PMS7003;66893;44.316;0.092;2023-09-12T00:55:45;4.25;4.25;4.00
76784;PMS7003;66893;44.316;0.092;2023-09-12T00:58:24;6.00;4.00;3.00
76784;PMS7003;66893;44.316;0.092;2023-09-12T01:00:50;5.00;5.00;4.00
76784;PMS7003;66893;44.316;0.092;2023-09-12T01:03:16;3.75;2.50;2.00
76784;PMS7003;66893;44.316;0.092;2023-09-12T01:05:42;5.50;5.50;4.25
76784;PMS7003;66893;44.316;0.092;2023-09-12T01:08:08;7.75;5.25;4.50
76784;PMS7003;66893;44.316;0.092;2023-09-12T01:10:35;5.00;5.00;3.00
76784;PMS7003;66893;44.316;0.092;2023-09-12T01:13:00;5.50;5.00;4.00
76784;PMS7003;66893;44.316;0.092;2023-09-12T01:15:26;8.75;8.00;6.00
76784;PMS7003;66893;44.316;0.092;2023-09-12T01:17:51;5.00;5.00;5.00
76784;PMS7003;66893;44.316;0.092;2023-09-12T01:20:19;7.00;7.00;6.00
76784;PMS7003;66893;44.316;0.092;2023-09-12T01:28:20;9.25;9.00;6.50
76784;PMS7003;66893;44.316;0.092;2023-09-12T01:30:50;3.25;3.00;2.25
76784;PMS7003;66893;44.316;0.092;2023-09-12T01:33:17;9.50;7.50;5.50
76784;PMS7003;66893;44.316;0.092;2023-09-12T01:35:42;8.75;7.50;5.50
76784;PMS7003;66893;44.316;0.092;2023-09-12T01:38:08;11.00;8.75;6.00
76784;PMS7003;66893;44.316;0.092;2023-09-12T01:40:38;11.25;9.50;7.25
76784;PMS7003;66893;44.316;0.092;2023-09-12T01:43:09;10.25;9.00;7.00
76784;PMS7003;66893;44.316;0.092;2023-09-12T01:45:35;8.75;8.25;6.25
76784;PMS7003;66893;44.316;0.092;2023-09-12T01:48:01;11.00;8.75;6.00
76784;PMS7003;66893;44.316;0.092;2023-09-12T01:50:29;7.50;7.50;7.00
76784;PMS7003;66893;44.316;0.092;2023-09-12T01:52:56;9.25;9.25;6.25
76784;PMS7003;66893;44.316;0.092;2023-09-12T01:55:21;8.50;8.50;6.50
76784;PMS7003;66893;44.316;0.092;2023-09-12T01:57:47;10.25;10.25;8.00
76784;PMS7003;66893;44.316;0.092;2023-09-12T02:00:13;14.00;10.75;8.25
76784;PMS7003;66893;44.316;0.092;2023-09-12T02:02:39;8.25;8.00;6.25
76784;PMS7003;66893;44.316;0.092;2023-09-12T02:05:15;11.25;9.50;7.00
76784;PMS7003;66893;44.316;0.092;2023-09-12T02:07:45;9.75;9.25;8.00
76784;PMS7003;66893;44.316;0.092;2023-09-12T02:10:11;10.00;9.00;7.00
76784;PMS7003;66893;44.316;0.092;2023-09-12T02:12:37;10.50;9.75;6.75
76784;PMS7003;66893;44.316;0.092;2023-09-12T02:15:03;14.50;9.00;7.50
76784;PMS7003;66893;44.316;0.092;2023-09-12T02:17:29;11.25;9.25;7.00
76784;PMS7003;66893;44.316;0.092;2023-09-12T02:19:55;9.75;7.25;6.25
76784;PMS7003;66893;44.316;0.092;2023-09-12T02:22:20;10.00;10.00;8.00
76784;PMS7003;66893;44.316;0.092;2023-09-12T02:24:46;10.50;9.50;6.50
76784;PMS7003;66893;44.316;0.092;2023-09-12T02:27:11;13.25;12.00;9.00
76784;PMS7003;66893;44.316;0.092;2023-09-12T02:29:38;8.50;8.50;7.00
76784;PMS7003;66893;44.316;0.092;2023-09-12T02:32:05;11.00;10.25;9.00
76784;PMS7003;66893;44.316;0.092;2023-09-12T02:34:30;14.25;10.25;9.25
76784;PMS7003;66893;44.316;0.092;2023-09-12T02:36:56;10.50;10.00;7.00
76784;PMS7003;66893;44.316;0.092;2023-09-12T02:39:21;11.00;10.25;8.25
76784;PMS7003;66893;44.316;0.092;2023-09-12T02:41:46;10.50;10.50;8.00
76784;PMS7003;66893;44.316;0.092;2023-09-12T02:44:12;11.75;11.00;8.25
76784;PMS7003;66893;44.316;0.092;2023-09-12T02:46:37;12.75;10.00;8.00
76784;PMS7003;66893;44.316;0.092;2023-09-12T02:49:03;12.00;11.75;8.00
76784;PMS7003;66893;44.316;0.092;2023-09-12T02:51:28;14.00;11.25;7.50
76784;PMS7003;66893;44.316;0.092;2023-09-12T02:53:54;15.00;14.25;9.00
76784;PMS7003;66893;44.316;0.092;2023-09-12T02:56:20;12.75;10.75;8.25
76784;PMS7003;66893;44.316;0.092;2023-09-12T02:58:46;13.50;13.50;10.25
76784;PMS7003;66893;44.316;0.092;2023-09-12T03:01:18;11.50;10.75;8.00
76784;PMS7003;66893;44.316;0.092;2023-09-12T03:03:48;13.00;11.75;9.00
76784;PMS7003;66893;44.316;0.092;2023-09-12T03:06:14;11.25;10.50;8.50
76784;PMS7003;66893;44.316;0.092;2023-09-12T03:08:40;12.75;11.25;9.00
76784;PMS7003;66893;44.316;0.092;2023-09-12T03:11:06;11.75;8.75;6.00
76784;PMS7003;66893;44.316;0.092;2023-09-12T03:13:33;11.25;10.50;8.50
76784;PMS7003;66893;44.316;0.092;2023-09-12T03:15:59;15.25;11.25;8.00
76784;PMS7003;66893;44.316;0.092;2023-09-12T03:18:25;9.75;9.75;8.00
76784;PMS7003;66893;44.316;0.092;2023-09-12T03:20:50;14.50;12.00;9.00
76784;PMS7003;66893;44.316;0.092;2023-09-12T03:23:16;13.50;11.25;8.00
76784;PMS7003;66893;44.316;0.092;2023-09-12T03:25:41;12.00;12.00;7.00
76784;PMS7003;66893;44.316;0.092;2023-09-12T03:28:07;14.25;13.75;9.00
76784;PMS7003;66893;44.316;0.092;2023-09-12T03:30:34;12.50;11.00;8.75
76784;PMS7003;66893;44.316;0.092;2023-09-12T03:33:00;10.75;10.25;8.25
76784;PMS7003;66893;44.316;0.092;2023-09-12T03:35:27;13.75;12.50;10.25
76784;PMS7003;66893;44.316;0.092;2023-09-12T03:37:53;11.25;10.50;8.50
76784;PMS7003;66893;44.316;0.092;2023-09-12T03:40:19;11.75;11.75;8.75
76784;PMS7003;66893;44.316;0.092;2023-09-12T03:42:45;14.50;12.75;9.00
76784;PMS7003;66893;44.316;0.092;2023-09-12T03:45:10;9.00;8.25;8.00
76784;PMS7003;66893;44.316;0.092;2023-09-12T03:47:36;11.25;11.25;9.00
76784;PMS7003;66893;44.316;0.092;2023-09-12T03:50:02;13.50;11.75;9.00
76784;PMS7003;66893;44.316;0.092;2023-09-12T03:52:27;13.00;13.00;10.25
76784;PMS7003;66893;44.316;0.092;2023-09-12T03:54:53;13.75;12.00;9.00
76784;PMS7003;66893;44.316;0.092;2023-09-12T03:57:18;10.50;10.25;8.00
76784;PMS7003;66893;44.316;0.092;2023-09-12T03:59:44;13.75;12.75;9.25
76784;PMS7003;66893;44.316;0.092;2023-09-12T04:02:11;13.50;13.25;9.50
76784;PMS7003;66893;44.316;0.092;2023-09-12T04:04:37;11.00;10.75;8.25
76784;PMS7003;66893;44.316;0.092;2023-09-12T04:07:03;14.50;14.00;9.25
76784;PMS7003;66893;44.316;0.092;2023-09-12T04:09:29;13.75;13.25;10.50
76784;PMS7003;66893;44.316;0.092;2023-09-12T04:11:54;12.75;11.25;9.00
76784;PMS7003;66893;44.316;0.092;2023-09-12T04:14:20;15.25;11.00;8.25
76784;PMS7003;66893;44.316;0.092;2023-09-12T04:16:46;12.25;12.25;10.00
76784;PMS7003;66893;44.316;0.092;2023-09-12T04:19:11;14.25;14.00;9.50
76784;PMS7003;66893;44.316;0.092;2023-09-12T04:21:38;15.50;15.25;10.00
76784;PMS7003;66893;44.316;0.092;2023-09-12T04:24:04;14.50;13.75;10.00
76784;PMS7003;66893;44.316;0.092;2023-09-12T04:26:29;16.00;13.75;10.00
76784;PMS7003;66893;44.316;0.092;2023-09-12T04:28:55;13.25;13.00;9.25
76784;PMS7003;66893;44.316;0.092;2023-09-12T04:31:20;14.50;12.50;9.50
76784;PMS7003;66893;44.316;0.092;2023-09-12T04:33:46;15.75;11.50;9.25
76784;PMS7003;66893;44.316;0.092;2023-09-12T04:36:11;18.00;15.00;9.00
76784;PMS7003;66893;44.316;0.092;2023-09-12T04:38:37;15.75;13.25;10.00
76784;PMS7003;66893;44.316;0.092;2023-09-12T04:41:02;14.75;14.25;11.00
76784;PMS7003;66893;44.316;0.092;2023-09-12T04:43:33;15.50;12.50;8.75
76784;PMS7003;66893;44.316;0.092;2023-09-12T04:45:58;13.50;13.25;9.00
76784;PMS7003;66893;44.316;0.092;2023-09-12T04:48:24;16.75;14.75;10.50
76784;PMS7003;66893;44.316;0.092;2023-09-12T04:50:49;17.50;12.50;10.50
76784;PMS7003;66893;44.316;0.092;2023-09-12T04:53:15;16.75;16.25;11.50
76784;PMS7003;66893;44.316;0.092;2023-09-12T04:55:40;16.25;13.50;10.50
76784;PMS7003;66893;44.316;0.092;2023-09-12T04:58:06;16.25;14.25;11.00
76784;PMS7003;66893;44.316;0.092;2023-09-12T05:00:32;14.00;14.00;10.50
76784;PMS7003;66893;44.316;0.092;2023-09-12T05:02:58;14.25;14.25;9.00
76784;PMS7003;66893;44.316;0.092;2023-09-12T05:05:24;13.50;12.00;9.50
76784;PMS7003;66893;44.316;0.092;2023-09-12T05:07:50;15.50;13.50;10.50
76784;PMS7003;66893;44.316;0.092;2023-09-12T05:10:16;16.00;14.50;10.25
76784;PMS7003;66893;44.316;0.092;2023-09-12T05:12:43;17.50;16.50;10.25
76784;PMS7003;66893;44.316;0.092;2023-09-12T05:15:09;16.75;13.00;10.00
76784;PMS7003;66893;44.316;0.092;2023-09-12T05:17:35;13.75;13.75;10.00
76784;PMS7003;66893;44.316;0.092;2023-09-12T05:20:00;16.25;14.75;10.50
76784;PMS7003;66893;44.316;0.092;2023-09-12T05:22:26;18.25;17.50;13.00
76784;PMS7003;66893;44.316;0.092;2023-09-12T05:24:52;16.00;15.00;11.75
76784;PMS7003;66893;44.316;0.092;2023-09-12T05:27:17;16.75;16.00;11.25
76784;PMS7003;66893;44.316;0.092;2023-09-12T05:29:43;14.25;12.25;8.50
76784;PMS7003;66893;44.316;0.092;2023-09-12T05:32:08;16.50;16.25;11.00
76784;PMS7003;66893;44.316;0.092;2023-09-12T05:34:34;15.00;14.25;9.75
76784;PMS7003;66893;44.316;0.092;2023-09-12T05:36:59;16.25;15.75;9.50
76784;PMS7003;66893;44.316;0.092;2023-09-12T05:39:25;14.00;12.50;9.00
76784;PMS7003;66893;44.316;0.092;2023-09-12T05:41:50;15.50;14.25;11.25
76784;PMS7003;66893;44.316;0.092;2023-09-12T05:44:15;19.00;15.50;10.50
76784;PMS7003;66893;44.316;0.092;2023-09-12T05:46:46;16.00;16.00;11.75
76784;PMS7003;66893;44.316;0.092;2023-09-12T05:49:13;18.25;16.00;11.25
76784;PMS7003;66893;44.316;0.092;2023-09-12T05:51:39;16.75;13.50;10.25
76784;PMS7003;66893;44.316;0.092;2023-09-12T05:54:05;19.50;16.50;11.25
76784;PMS7003;66893;44.316;0.092;2023-09-12T05:56:31;14.25;12.25;9.75
76784;PMS7003;66893;44.316;0.092;2023-09-12T05:58:56;15.00;13.75;11.00
76784;PMS7003;66893;44.316;0.092;2023-09-12T06:01:21;13.75;13.50;9.25
76784;PMS7003;66893;44.316;0.092;2023-09-12T06:03:47;19.00;18.50;11.50
76784;PMS7003;66893;44.316;0.092;2023-09-12T06:06:12;22.25;20.75;12.50
76784;PMS7003;66893;44.316;0.092;2023-09-12T06:08:38;21.00;17.00;11.00
76784;PMS7003;66893;44.316;0.092;2023-09-12T06:11:04;24.25;21.25;15.50
76784;PMS7003;66893;44.316;0.092;2023-09-12T06:13:29;19.00;18.25;12.75
76784;PMS7003;66893;44.316;0.092;2023-09-12T06:15:55;18.25;17.75;12.50
76784;PMS7003;66893;44.316;0.092;2023-09-12T06:18:20;22.50;21.25;13.75
76784;PMS7003;66893;44.316;0.092;2023-09-12T06:20:46;22.50;19.75;13.25
76784;PMS7003;66893;44.316;0.092;2023-09-12T06:23:11;21.25;18.00;11.75
76784;PMS7003;66893;44.316;0.092;2023-09-12T06:25:37;18.75;16.75;11.50
76784;PMS7003;66893;44.316;0.092;2023-09-12T06:28:02;21.50;18.00;12.00
76784;PMS7003;66893;44.316;0.092;2023-09-12T06:30:28;19.75;17.75;13.75
76784;PMS7003;66893;44.316;0.092;2023-09-12T06:32:54;21.00;18.00;12.00
76784;PMS7003;66893;44.316;0.092;2023-09-12T06:35:19;24.25;21.00;13.50
76784;PMS7003;66893;44.316;0.092;2023-09-12T06:37:45;19.00;17.50;11.25
76784;PMS7003;66893;44.316;0.092;2023-09-12T06:40:12;16.00;15.25;9.50
76784;PMS7003;66893;44.316;0.092;2023-09-12T06:42:37;18.50;16.50;12.00
76784;PMS7003;66893;44.316;0.092;2023-09-12T06:45:03;22.00;18.75;14.25
76784;PMS7003;66893;44.316;0.092;2023-09-12T06:47:28;17.00;14.75;11.00
76784;PMS7003;66893;44.316;0.092;2023-09-12T06:49:54;22.00;19.75;12.75
76784;PMS7003;66893;44.316;0.092;2023-09-12T06:52:19;22.25;18.25;13.00
76784;PMS7003;66893;44.316;0.092;2023-09-12T06:54:45;22.50;16.75;11.75
76784;PMS7003;66893;44.316;0.092;2023-09-12T06:57:10;21.00;18.25;13.00
76784;PMS7003;66893;44.316;0.092;2023-09-12T06:59:35;20.00;15.75;11.00
76784;PMS7003;66893;44.316;0.092;2023-09-12T07:02:02;23.50;20.50;14.25
76784;PMS7003;66893;44.316;0.092;2023-09-12T07:04:27;20.50;17.75;12.25
76784;PMS7003;66893;44.316;0.092;2023-09-12T07:06:53;21.25;19.25;12.50
76784;PMS7003;66893;44.316;0.092;2023-09-12T07:09:18;20.00;17.50;12.25
76784;PMS7003;66893;44.316;0.092;2023-09-12T07:11:44;19.75;18.50;15.00
76784;PMS7003;66893;44.316;0.092;2023-09-12T07:14:09;18.75;17.50;12.75
76784;PMS7003;66893;44.316;0.092;2023-09-12T07:16:35;19.75;19.75;12.75
76784;PMS7003;66893;44.316;0.092;2023-09-12T07:19:01;20.50;18.50;13.25
76784;PMS7003;66893;44.316;0.092;2023-09-12T07:21:28;23.25;20.00;12.50
76784;PMS7003;66893;44.316;0.092;2023-09-12T07:23:54;26.75;22.00;14.00
76784;PMS7003;66893;44.316;0.092;2023-09-12T07:26:20;22.00;20.75;14.25
76784;PMS7003;66893;44.316;0.092;2023-09-12T07:28:45;22.25;22.00;14.50
76784;PMS7003;66893;44.316;0.092;2023-09-12T07:31:11;22.75;21.50;13.75
76784;PMS7003;66893;44.316;0.092;2023-09-12T07:33:36;22.75;18.25;13.25
76784;PMS7003;66893;44.316;0.092;2023-09-12T07:36:02;30.00;24.00;14.25
76784;PMS7003;66893;44.316;0.092;2023-09-12T07:38:28;20.25;18.00;13.00
76784;PMS7003;66893;44.316;0.092;2023-09-12T07:40:55;25.00;19.75;14.00
76784;PMS7003;66893;44.316;0.092;2023-09-12T07:43:21;20.75;20.75;13.25
76784;PMS7003;66893;44.316;0.092;2023-09-12T07:45:47;22.50;17.75;12.25
76784;PMS7003;66893;44.316;0.092;2023-09-12T07:48:14;18.50;18.00;12.25
76784;PMS7003;66893;44.316;0.092;2023-09-12T07:50:40;14.50;12.25;8.50
76784;PMS7003;66893;44.316;0.092;2023-09-12T07:53:06;18.25;17.50;12.50
76784;PMS7003;66893;44.316;0.092;2023-09-12T07:55:34;14.75;14.75;11.00
76784;PMS7003;66893;44.316;0.092;2023-09-12T07:58:14;22.50;18.00;13.00
76784;PMS7003;66893;44.316;0.092;2023-09-12T08:00:46;20.25;19.50;13.25
76784;PMS7003;66893;44.316;0.092;2023-09-12T08:03:12;18.00;17.25;11.25
76784;PMS7003;66893;44.316;0.092;2023-09-12T08:05:38;15.75;14.25;10.50
76784;PMS7003;66893;44.316;0.092;2023-09-12T08:08:04;17.00;17.00;11.00
76784;PMS7003;66893;44.316;0.092;2023-09-12T08:10:29;15.50;15.50;11.25
76784;PMS7003;66893;44.316;0.092;2023-09-12T08:12:55;16.00;16.00;10.50
76784;PMS7003;66893;44.316;0.092;2023-09-12T08:15:20;21.50;17.25;10.25
76784;PMS7003;66893;44.316;0.092;2023-09-12T08:17:46;13.25;11.75;8.25
76784;PMS7003;66893;44.316;0.092;2023-09-12T08:20:16;15.75;15.75;10.25
76784;PMS7003;66893;44.316;0.092;2023-09-12T08:22:42;16.00;15.25;10.00
76784;PMS7003;66893;44.316;0.092;2023-09-12T08:25:08;17.50;16.50;11.50
76784;PMS7003;66893;44.316;0.092;2023-09-12T08:27:35;17.75;13.00;9.25
76784;PMS7003;66893;44.316;0.092;2023-09-12T08:30:00;15.25;13.25;9.25
76784;PMS7003;66893;44.316;0.092;2023-09-12T08:32:26;14.00;13.50;10.00
76784;PMS7003;66893;44.316;0.092;2023-09-12T08:34:51;19.00;15.00;10.00
76784;PMS7003;66893;44.316;0.092;2023-09-12T08:37:17;15.75;14.50;10.00
76784;PMS7003;66893;44.316;0.092;2023-09-12T08:39:43;17.00;13.25;9.75
76784;PMS7003;66893;44.316;0.092;2023-09-12T08:42:13;15.25;13.75;10.00
76784;PMS7003;66893;44.316;0.092;2023-09-12T08:44:41;14.50;14.00;9.50
76784;PMS7003;66893;44.316;0.092;2023-09-12T08:47:08;14.75;13.25;9.00
76784;PMS7003;66893;44.316;0.092;2023-09-12T08:49:37;13.00;12.50;7.75
76784;PMS7003;66893;44.316;0.092;2023-09-12T08:52:06;12.00;12.00;8.25
76784;PMS7003;66893;44.316;0.092;2023-09-12T08:54:32;18.00;15.00;9.75
76784;PMS7003;66893;44.316;0.092;2023-09-12T08:56:57;16.00;14.00;9.50
76784;PMS7003;66893;44.316;0.092;2023-09-12T08:59:23;16.25;13.25;8.75
76784;PMS7003;66893;44.316;0.092;2023-09-12T09:01:50;18.75;15.75;10.00
76784;PMS7003;66893;44.316;0.092;2023-09-12T09:04:17;12.75;12.25;9.25
76784;PMS7003;66893;44.316;0.092;2023-09-12T09:06:44;13.50;13.00;9.75
76784;PMS7003;66893;44.316;0.092;2023-09-12T09:09:11;14.25;14.25;9.00
76784;PMS7003;66893;44.316;0.092;2023-09-12T09:11:37;15.00;13.00;10.00
76784;PMS7003;66893;44.316;0.092;2023-09-12T09:14:03;18.50;14.25;9.50
76784;PMS7003;66893;44.316;0.092;2023-09-12T09:16:28;15.00;13.00;10.25
76784;PMS7003;66893;44.316;0.092;2023-09-12T09:18:55;19.50;14.75;9.75
76784;PMS7003;66893;44.316;0.092;2023-09-12T09:21:24;15.25;15.25;11.00
76784;PMS7003;66893;44.316;0.092;2023-09-12T09:23:52;14.00;13.75;10.00
76784;PMS7003;66893;44.316;0.092;2023-09-12T09:26:18;14.25;13.75;9.00
76784;PMS7003;66893;44.316;0.092;2023-09-12T09:28:44;12.75;12.75;9.25
76784;PMS7003;66893;44.316;0.092;2023-09-12T09:31:13;10.50;10.25;8.50
76784;PMS7003;66893;44.316;0.092;2023-09-12T09:33:39;15.25;15.25;11.25
76784;PMS7003;66893;44.316;0.092;2023-09-12T09:36:06;13.25;13.25;9.25
76784;PMS7003;66893;44.316;0.092;2023-09-12T09:38:35;16.50;16.50;10.50
76784;PMS7003;66893;44.316;0.092;2023-09-12T09:41:03;13.25;12.00;9.25
76784;PMS7003;66893;44.316;0.092;2023-09-12T09:43:30;16.00;12.50;9.25
76784;PMS7003;66893;44.316;0.092;2023-09-12T09:45:56;16.00;14.50;9.50
76784;PMS7003;66893;44.316;0.092;2023-09-12T09:48:23;13.00;13.00;9.25
76784;PMS7003;66893;44.316;0.092;2023-09-12T09:50:52;13.00;12.50;9.00
76784;PMS7003;66893;44.316;0.092;2023-09-12T09:53:21;13.50;12.00;9.00
76784;PMS7003;66893;44.316;0.092;2023-09-12T09:55:51;13.75;13.25;10.00
76784;PMS7003;66893;44.316;0.092;2023-09-12T09:58:16;19.25;16.25;11.00
76784;PMS7003;66893;44.316;0.092;2023-09-12T10:00:42;15.25;15.25;11.25
76784;PMS7003;66893;44.316;0.092;2023-09-12T10:03:08;15.25;14.75;10.00
76784;PMS7003;66893;44.316;0.092;2023-09-12T10:05:37;14.50;12.00;9.00
76784;PMS7003;66893;44.316;0.092;2023-09-12T10:08:03;16.00;15.50;11.50
76784;PMS7003;66893;44.316;0.092;2023-09-12T10:10:33;14.75;14.75;9.50
76784;PMS7003;66893;44.316;0.092;2023-09-12T10:13:00;15.50;13.25;9.00
76784;PMS7003;66893;44.316;0.092;2023-09-12T10:15:29;16.50;13.25;8.50
76784;PMS7003;66893;44.316;0.092;2023-09-12T10:17:56;15.00;14.00;9.25
76784;PMS7003;66893;44.316;0.092;2023-09-12T10:20:25;16.00;15.25;10.25
76784;PMS7003;66893;44.316;0.092;2023-09-12T10:23:04;14.00;11.75;8.00
76784;PMS7003;66893;44.316;0.092;2023-09-12T10:25:36;14.00;12.75;8.75
76784;PMS7003;66893;44.316;0.092;2023-09-12T10:28:03;14.00;11.50;8.00
76784;PMS7003;66893;44.316;0.092;2023-09-12T10:30:30;16.75;15.00;9.75
76784;PMS7003;66893;44.316;0.092;2023-09-12T10:32:57;14.75;14.75;10.00
76784;PMS7003;66893;44.316;0.092;2023-09-12T10:35:25;13.50;12.75;9.00
76784;PMS7003;66893;44.316;0.092;2023-09-12T10:37:52;14.75;13.00;8.75
76784;PMS7003;66893;44.316;0.092;2023-09-12T10:40:21;14.00;12.75;8.00
76784;PMS7003;66893;44.316;0.092;2023-09-12T10:42:46;15.75;11.25;9.25
76784;PMS7003;66893;44.316;0.092;2023-09-12T10:45:14;11.50;11.50;8.75
76784;PMS7003;66893;44.316;0.092;2023-09-12T10:47:40;15.50;12.25;9.00
76784;PMS7003;66893;44.316;0.092;2023-09-12T10:50:09;13.50;12.00;9.25
76784;PMS7003;66893;44.316;0.092;2023-09-12T10:52:35;17.25;17.00;10.50
76784;PMS7003;66893;44.316;0.092;2023-09-12T10:55:04;14.25;13.75;9.50
76784;PMS7003;66893;44.316;0.092;2023-09-12T10:57:31;20.75;15.75;11.00
76784;PMS7003;66893;44.316;0.092;2023-09-12T11:02:36;14.50;13.50;9.25
76784;PMS7003;66893;44.316;0.092;2023-09-12T11:05:05;12.50;10.25;7.75
76784;PMS7003;66893;44.316;0.092;2023-09-12T11:07:51;13.00;12.50;9.50
76784;PMS7003;66893;44.316;0.092;2023-09-12T11:10:21;15.75;12.25;9.00
76784;PMS7003;66893;44.316;0.092;2023-09-12T11:12:51;10.50;9.00;6.75
76784;PMS7003;66893;44.316;0.092;2023-09-12T11:15:19;14.75;11.00;8.00
76784;PMS7003;66893;44.316;0.092;2023-09-12T11:17:48;15.50;13.50;8.50
76784;PMS7003;66893;44.316;0.092;2023-09-12T11:20:15;13.25;12.50;8.25
76784;PMS7003;66893;44.316;0.092;2023-09-12T11:22:43;17.50;11.75;8.75
76784;PMS7003;66893;44.316;0.092;2023-09-12T11:32:47;11.75;11.25;8.25
76784;PMS7003;66893;44.316;0.092;2023-09-12T11:35:17;10.25;10.00;7.50
76784;PMS7003;66893;44.316;0.092;2023-09-12T11:37:52;10.75;10.50;8.00
76784;PMS7003;66893;44.316;0.092;2023-09-12T11:42:57;10.50;10.25;8.25
76784;PMS7003;66893;44.316;0.092;2023-09-12T11:45:23;11.50;11.50;8.00
76784;PMS7003;66893;44.316;0.092;2023-09-12T11:47:48;12.00;10.00;8.00
76784;PMS7003;66893;44.316;0.092;2023-09-12T11:50:30;10.00;10.00;8.00
76784;PMS7003;66893;44.316;0.092;2023-09-12T11:53:05;9.00;9.00;7.00
76784;PMS7003;66893;44.316;0.092;2023-09-12T11:55:33;11.25;11.25;8.25
76784;PMS7003;66893;44.316;0.092;2023-09-12T11:58:00;13.75;13.00;9.00
76784;PMS7003;66893;44.316;0.092;2023-09-12T12:00:26;11.25;9.75;6.00
76784;PMS7003;66893;44.316;0.092;2023-09-12T12:02:53;14.25;11.00;7.50
76784;PMS7003;66893;44.316;0.092;2023-09-12T12:05:19;13.25;12.00;8.00
76784;PMS7003;66893;44.316;0.092;2023-09-12T12:07:46;11.00;10.00;7.75
76784;PMS7003;66893;44.316;0.092;2023-09-12T12:10:12;10.00;10.00;8.75
76784;PMS7003;66893;44.316;0.092;2023-09-12T12:12:38;10.25;9.75;8.25
76784;PMS7003;66893;44.316;0.092;2023-09-12T12:15:04;10.75;8.75;7.00
76784;PMS7003;66893;44.316;0.092;2023-09-12T12:17:35;10.75;10.75;8.00
76784;PMS7003;66893;44.316;0.092;2023-09-12T12:20:02;12.00;11.75;9.25
76784;PMS7003;66893;44.316;0.092;2023-09-12T12:22:35;15.75;12.75;9.50
76784;PMS7003;66893;44.316;0.092;2023-09-12T12:25:08;15.00;12.25;9.75
76784;PMS7003;66893;44.316;0.092;2023-09-12T12:27:38;11.25;11.00;7.75
76784;PMS7003;66893;44.316;0.092;2023-09-12T12:30:13;11.25;10.00;8.50
76784;PMS7003;66893;44.316;0.092;2023-09-12T12:32:39;12.50;11.00;8.00
76784;PMS7003;66893;44.316;0.092;2023-09-12T12:35:17;13.00;12.50;8.00
76784;PMS7003;66893;44.316;0.092;2023-09-12T12:37:50;13.75;11.50;8.00
76784;PMS7003;66893;44.316;0.092;2023-09-12T12:40:19;5.00;5.00;4.00
76784;PMS7003;66893;44.316;0.092;2023-09-12T12:42:44;7.00;4.25;3.00
76784;PMS7003;66893;44.316;0.092;2023-09-12T12:47:39;1.50;1.50;1.00
76784;PMS7003;66893;44.316;0.092;2023-09-12T12:50:15;4.50;2.75;2.25
76784;PMS7003;66893;44.316;0.092;2023-09-12T12:52:43;3.25;2.50;2.25
76784;PMS7003;66893;44.316;0.092;2023-09-12T12:55:11;4.00;4.00;4.00
76784;PMS7003;66893;44.316;0.092;2023-09-12T13:09:49;4.00;4.00;2.00
76784;PMS7003;66893;44.316;0.092;2023-09-12T13:12:14;3.00;2.00;2.00
76784;PMS7003;66893;44.316;0.092;2023-09-12T13:14:40;4.25;4.25;2.75
76784;PMS7003;66893;44.316;0.092;2023-09-12T13:17:06;3.00;2.25;2.00
76784;PMS7003;66893;44.316;0.092;2023-09-12T13:19:31;4.00;4.00;3.00
76784;PMS7003;66893;44.316;0.092;2023-09-12T13:21:57;5.00;3.50;3.00
76784;PMS7003;66893;44.316;0.092;2023-09-12T13:24:22;2.00;2.00;2.00
76784;PMS7003;66893;44.316;0.092;2023-09-12T13:26:48;2.50;2.50;1.75
76784;PMS7003;66893;44.316;0.092;2023-09-12T13:29:14;3.00;3.00;2.50
76784;PMS7003;66893;44.316;0.092;2023-09-12T13:31:39;2.00;2.00;2.00
76784;PMS7003;66893;44.316;0.092;2023-09-12T13:34:05;3.00;2.00;2.00
76784;PMS7003;66893;44.316;0.092;2023-09-12T13:36:30;3.75;3.75;3.00
76784;PMS7003;66893;44.316;0.092;2023-09-12T13:38:55;3.50;3.25;2.50
76784;PMS7003;66893;44.316;0.092;2023-09-12T13:41:21;5.75;4.25;3.25
76784;PMS7003;66893;44.316;0.092;2023-09-12T13:43:48;7.75;4.50;3.50
76784;PMS7003;66893;44.316;0.092;2023-09-12T13:46:13;5.25;5.25;4.25
76784;PMS7003;66893;44.316;0.092;2023-09-12T13:48:39;5.00;5.00;4.00
76784;PMS7003;66893;44.316;0.092;2023-09-12T13:51:04;3.25;3.25;3.00
76784;PMS7003;66893;44.316;0.092;2023-09-12T13:53:31;4.00;4.00;3.00
76784;PMS7003;66893;44.316;0.092;2023-09-12T13:55:56;5.75;3.50;3.00
76784;PMS7003;66893;44.316;0.092;2023-09-12T13:58:23;4.75;3.00;2.50
76784;PMS7003;66893;44.316;0.092;2023-09-12T14:00:49;4.00;4.00;4.00
76784;PMS7003;66893;44.316;0.092;2023-09-12T14:03:14;4.50;3.75;3.00
76784;PMS7003;66893;44.316;0.092;2023-09-12T14:05:40;5.00;4.00;3.00
76784;PMS7003;66893;44.316;0.092;2023-09-12T14:08:06;5.00;4.25;4.00
76784;PMS7003;66893;44.316;0.092;2023-09-12T14:10:31;5.00;5.00;4.00
76784;PMS7003;66893;44.316;0.092;2023-09-12T14:12:57;3.00;3.00;2.00
76784;PMS7003;66893;44.316;0.092;2023-09-12T14:15:22;6.75;5.75;4.50
76784;PMS7003;66893;44.316;0.092;2023-09-12T14:17:48;7.00;6.50;4.25
76784;PMS7003;66893;44.316;0.092;2023-09-12T14:20:13;4.00;3.00;2.25
76784;PMS7003;66893;44.316;0.092;2023-09-12T14:22:42;7.00;5.00;4.75
76784;PMS7003;66893;44.316;0.092;2023-09-12T14:25:08;8.50;5.00;4.25
76784;PMS7003;66893;44.316;0.092;2023-09-12T14:27:39;5.00;5.00;4.75
76784;PMS7003;66893;44.316;0.092;2023-09-12T14:30:09;5.75;5.50;4.25
76784;PMS7003;66893;44.316;0.092;2023-09-12T14:32:38;4.75;4.00;3.75